Latest Weather Observations for Cowra

IDN60801

Issued at 6:32 am EST Friday 28 April 2017 (issued every 30 minutes, with the page automatically refreshed every 10 minutes)

About weather observations | Map of weather stations | Latest weather observations for NSW | Other Formats
Station Details ID: 065111 Name: COWRA AIRPORT AWS Lat: -33.84 Lon: 148.65 Height: 300.4 m
Data from the previous 72 hours. | See also: Recent months at Cowra
Date/Time
EST
Temp
°C
App
Temp
°C
Dew
Point
°C
Rel
Hum
%
Delta-T
°C
Wind Press
QNH
hPa
Press
MSL
hPa
Rain since
9am
mm
Dir  Spd
km/h
Gust
km/h
Spd
kts
Gust
kts
28/06:30am 2.5 0.9 2.2 98 0.1 CALM 0 6 0 3 1023.1 1022.6 0.2
28/06:00am 2.4 0.3 1.8 96 0.2 ESE 2 6 1 3 1023.1 1022.6 0.2
28/05:30am 2.6 0.2 1.9 95 0.3 ESE 4 7 2 4 1022.9 1022.4 0.2
28/05:00am 3.3 0.1 3.0 98 0.1 ESE 9 11 5 6 1022.4 1021.9 0.2
28/04:30am 3.0 -0.3 2.7 98 0.1 ESE 9 11 5 6 1022.3 1021.8 0.0
28/04:00am 2.8 1.2 2.4 97 0.2 CALM 0 0 0 0 1022.0 1021.5 0.0
28/03:30am 3.0 1.4 2.6 97 0.2 CALM 0 0 0 0 1021.9 1021.4 0.0
28/03:00am 3.3 1.0 3.0 98 0.1 ESE 4 7 2 4 1021.9 1021.4 0.0
28/02:30am 3.3 1.8 2.9 97 0.2 CALM 0 0 0 0 1021.7 1021.2 0.0
28/02:00am 3.9 2.5 3.5 97 0.2 CALM 0 0 0 0 1021.8 1021.3 0.0
28/01:30am 3.8 2.3 2.9 94 0.4 CALM 0 0 0 0 1021.7 1021.2 0.0
28/01:00am 4.3 2.9 3.4 94 0.4 CALM 0 0 0 0 1021.9 1021.4 0.0
28/12:30am 4.4 3.0 3.5 94 0.4 CALM 0 0 0 0 1022.0 1021.5 0.0
28/12:00am 4.8 3.4 3.5 91 0.5 CALM 0 0 0 0 1022.0 1021.5 0.0
 
Date/Time
EST
Temp
°C
App
Temp
°C
Dew
Point
°C
Rel
Hum
%
Delta-T
°C
Wind Press
QNH
hPa
Press
MSL
hPa
Rain since
9am
mm
Dir  Spd
km/h
Gust
km/h
Spd
kts
Gust
kts
27/11:30pm 5.4 3.3 3.9 90 0.6 ESE 4 7 2 4 1021.9 1021.4 0.0
27/11:00pm 5.4 4.1 4.1 91 0.6 CALM 0 0 0 0 1021.8 1021.3 0.0
27/10:30pm 5.7 3.3 4.2 90 0.7 E 6 7 3 4 1021.8 1021.3 0.0
27/10:00pm 5.8 4.5 4.1 89 0.7 CALM 0 0 0 0 1021.6 1021.1 0.0
27/09:30pm 6.6 5.3 4.1 84 1.1 CALM 0 0 0 0 1021.4 1020.9 0.0
27/09:00pm 7.3 6.0 4.3 81 1.3 CALM 0 0 0 0 1021.4 1020.9 0.0
27/08:30pm 7.6 6.4 4.4 80 1.4 CALM 0 6 0 3 1021.0 1020.4 0.0
27/08:00pm 7.3 5.7 4.4 82 1.3 NE 2 6 1 3 1021.0 1020.4 0.0
27/07:30pm 8.7 7.2 4.9 77 1.7 ENE 2 6 1 3 1021.0 1020.4 0.0
27/07:00pm 8.1 6.2 4.7 79 1.5 NE 4 6 2 3 1020.7 1020.1 0.0
27/06:30pm 8.6 7.3 4.2 74 2.0 CALM 0 0 0 0 1020.2 1019.7 0.0
27/06:00pm 9.9 6.2 4.7 70 2.4 SW 13 15 7 8 1019.9 1019.4 0.0
27/05:30pm 10.8 6.4 4.7 66 2.8 WSW 17 20 9 11 1019.5 1019.0 0.0
27/05:00pm 12.0 7.6 4.7 61 3.4 WSW 17 22 9 12 1019.2 1018.7 0.0
27/04:30pm 12.7 8.3 4.7 58 3.7 WSW 17 28 9 15 1019.0 1018.5 0.0
27/04:00pm 13.5 9.2 5.2 57 3.9 SW 17 26 9 14 1018.6 1018.1 0.0
27/03:30pm 13.4 9.2 4.0 53 4.3 WSW 15 20 8 11 1018.5 1018.0 0.0
27/03:00pm 13.9 10.6 4.5 53 4.4 SW 11 17 6 9 1018.2 1017.6 0.0
27/02:30pm 12.8 8.5 3.2 52 4.3 SW 15 20 8 11 1017.9 1017.3 0.0
27/02:00pm 12.8 8.6 3.7 54 4.1 SSW 15 20 8 11 1017.8 1017.2 0.0
27/01:30pm 13.3 8.9 4.5 55 4.1 SW 17 20 9 11 1018.0 1017.4 0.0
27/01:00pm 12.4 9.4 3.9 56 3.9 S 9 15 5 8 1018.1 1017.5 0.0
27/12:30pm 11.7 9.5 5.1 64 3.1 W 6 9 3 5 1018.5 1018.0 0.0
27/12:00pm 10.8 7.5 4.5 65 2.9 S 11 19 6 10 1018.9 1018.4 0.0
27/11:30am 10.1 6.8 4.7 69 2.5 SSW 11 15 6 8 1019.1 1018.6 0.0
27/11:00am 10.2 6.9 4.6 68 2.5 S 11 17 6 9 1019.3 1018.8 0.0
27/10:30am 9.5 5.4 4.1 69 2.4 SSW 15 20 8 11 1019.2 1018.7 0.0
27/10:00am 9.1 4.7 4.9 75 1.9 SW 17 24 9 13 1019.3 1018.8 0.0
27/09:30am 8.3 3.7 3.9 74 1.9 SSW 17 22 9 12 1019.4 1018.9 0.0
27/09:00am 7.9 4.9 3.9 76 1.8 SW 9 13 5 7 1019.1 1018.6 6.2
27/08:30am 7.2 4.2 4.2 81 1.3 SW 9 17 5 9 1018.9 1018.4 6.2
27/08:00am 6.5 3.5 4.0 84 1.1 WSW 9 13 5 7 1018.6 1018.1 6.2
27/07:30am 5.1 2.4 3.8 91 0.6 WSW 7 11 4 6 1018.3 1017.7 6.2
27/07:00am 5.2 2.1 3.7 90 0.6 W 9 13 5 7 1017.7 1017.1 6.2
27/06:30am 5.6 3.8 3.6 87 0.9 W 2 6 1 3 1017.4 1016.8 6.2
27/06:00am 5.8 3.4 4.1 89 0.7 W 6 7 3 4 1017.0 1016.4 6.2
27/05:30am 5.3 4.0 4.1 92 0.5 CALM 0 0 0 0 1016.5 1016.0 6.2
27/05:00am 5.7 3.1 4.2 90 0.6 SW 7 9 4 5 1016.1 1015.6 6.2
27/04:30am 6.2 2.5 4.5 89 0.7 WSW 13 17 7 9 1015.7 1015.2 6.2
27/04:00am 6.0 3.5 4.8 92 0.5 W 7 15 4 8 1015.3 1014.7 6.2
27/03:30am 5.8 3.4 4.1 89 0.7 WSW 6 7 3 4 1015.3 1014.7 6.2
27/03:00am 6.2 3.7 4.7 90 0.7 N 7 9 4 5 1015.4 1014.8 6.2
27/02:30am 6.6 4.1 4.6 87 0.9 WNW 7 9 4 5 1015.2 1014.6 6.2
27/02:00am 6.8 4.8 4.5 85 1.0 NW 4 11 2 6 1015.5 1014.9 6.2
27/01:30am 7.3 4.7 4.4 82 1.3 SSW 7 13 4 7 1015.2 1014.6 6.2
27/01:00am 7.7 3.3 4.5 80 1.4 SSW 17 20 9 11 1015.3 1014.7 6.2
27/12:30am 8.2 4.5 4.6 78 1.6 SSW 13 19 7 10 1015.4 1014.8 6.2
27/12:00am 8.6 4.2 5.0 78 1.6 WSW 17 24 9 13 1015.2 1014.6 6.2
 
Date/Time
EST
Temp
°C
App
Temp
°C
Dew
Point
°C
Rel
Hum
%
Delta-T
°C
Wind Press
QNH
hPa
Press
MSL
hPa
Rain since
9am
mm
Dir  Spd
km/h
Gust
km/h
Spd
kts
Gust
kts
26/11:30pm 8.6 4.7 5.2 79 1.5 WSW 15 19 8 10 1014.9 1014.3 6.2
26/11:00pm 9.2 4.9 5.4 77 1.7 SW 17 20 9 11 1014.8 1014.2 6.2
26/10:30pm 9.8 4.7 6.0 77 1.8 SW 22 30 12 16 1014.4 1013.8 6.2
26/10:00pm 10.0 4.1 5.8 75 2.0 SW 26 35 14 19 1014.2 1013.6 6.2
26/09:30pm 10.3 4.8 6.1 75 2.0 SW 24 33 13 18 1014.1 1013.5 6.2
26/09:00pm 11.2 7.3 7.3 77 1.9 SW 17 24 9 13 1013.8 1013.2 6.2
26/08:30pm 11.5 7.2 7.8 78 1.8 SW 20 30 11 16 1013.2 1012.7 6.2
26/08:00pm 11.0 8.6 8.8 86 1.1 WSW 11 15 6 8 1012.8 1012.3 6.2
26/07:30pm 11.1 7.2 8.5 84 1.3 WSW 19 26 10 14 1012.6 1012.0 6.2
26/07:00pm 11.2 8.3 8.2 82 1.5 WSW 13 20 7 11 1012.3 1011.7 6.2
26/06:30pm 11.0 7.7 7.9 81 1.5 WSW 15 19 8 10 1011.8 1011.2 6.2
26/06:00pm 10.9 6.2 7.6 80 1.6 WSW 22 30 12 16 1011.1 1010.5 6.2
26/05:30pm 11.0 7.1 7.3 78 1.8 WSW 17 22 9 12 1010.6 1010.0 6.2
26/05:00pm 11.5 6.6 6.8 73 2.3 WSW 22 28 12 15 1010.2 1009.6 6.2
26/04:30pm 12.2 8.2 8.1 76 2.0 W 19 28 10 15 1009.5 1008.9 6.2
26/04:00pm 11.5 8.6 8.2 80 1.6 W 13 19 7 10 1009.3 1008.7 6.2
26/03:30pm 10.2 5.5 6.2 76 1.9 WSW 20 37 11 20 1009.3 1008.7 6.0
26/03:00pm 11.4 8.5 8.3 81 1.6 WSW 13 19 7 10 1008.9 1008.3 6.0
26/02:30pm 11.3 8.4 8.0 80 1.6 WSW 13 17 7 9 1008.8 1008.2 5.6
26/02:00pm 11.1 8.8 7.4 78 1.8 WNW 9 15 5 8 1008.7 1008.1 5.6
26/01:30pm 11.1 9.5 8.1 82 1.5 NW 6 11 3 6 1008.7 1008.1 5.6
26/01:00pm 10.7 8.4 7.6 81 1.5 SSW 9 15 5 8 1008.5 1007.9 5.6
26/12:30pm 10.8 6.2 8.2 84 1.3 SSW 22 32 12 17 1008.5 1007.9 5.6
26/12:00pm 10.2 3.2 8.5 89 0.8 SSW 35 48 19 26 1008.4 1007.8 5.6
26/11:49am 9.8 2.8 8.6 92 0.6 SSW 35 52 19 28 1008.3 1007.7 5.6
26/11:46am 9.6 2.5 8.2 91 0.7 SW 35 52 19 28 1008.3 1007.7 5.6
26/11:30am 9.8 0.3 8.2 90 0.8 WSW 48 70 26 38 1008.7 1008.1 4.8
26/11:25am 10.2 1.0 8.1 87 1.0 WSW 46 70 25 38 1008.5 1007.9 4.4
26/11:18am 10.5 4.3 6.3 75 2.0 WNW 28 57 15 31 1008.3 1007.7 3.0
26/11:00am 15.9 12.3 11.7 76 2.3 NNW 22 39 12 21 1006.7 1006.0 1.4
26/10:56am 16.5 13.6 12.8 79 2.1 NNW 20 39 11 21 1006.6 1005.9 1.4
26/10:30am 15.4 13.9 13.1 86 1.3 NW 13 20 7 11 1007.3 1006.7 1.4
26/10:00am 15.3 11.9 12.6 84 1.5 NNW 22 33 12 18 1007.8 1007.2 1.4
26/09:30am 14.5 11.2 12.9 90 0.9 NNW 22 30 12 16 1008.2 1007.6 1.4
26/09:00am 13.9 10.9 12.1 89 1.0 NW 19 26 10 14 1008.8 1008.2 8.8
26/08:30am 14.1 11.8 13.0 93 0.6 NNW 17 26 9 14 1008.7 1008.1 8.8
26/08:00am 13.6 10.9 13.0 96 0.3 NNW 19 24 10 13 1008.7 1008.1 8.8
26/07:30am 12.9 10.6 12.9 100 0.0 NNW 17 20 9 11 1008.5 1007.9 8.8
26/07:00am 12.3 10.2 12.3 100 0.0 NNW 15 20 8 11 1008.6 1008.0 8.6
26/06:30am 12.0 10.2 12.0 100 0.0 N 13 17 7 9 1008.5 1007.9 8.6
26/06:00am 12.2 10.4 12.2 100 0.0 N 13 15 7 8 1008.5 1007.9 8.6
26/05:30am 12.6 10.9 12.6 100 0.0 NNW 13 19 7 10 1008.6 1008.0 8.6
26/05:00am 13.0 10.7 13.0 100 0.0 N 17 20 9 11 1008.5 1007.9 8.6
26/04:30am 12.8 11.2 12.8 100 0.0 N 13 17 7 9 1008.7 1008.1 8.6
26/04:00am 12.6 11.7 12.6 100 0.0 N 9 11 5 6 1008.8 1008.2 8.6
26/03:30am 13.0 12.2 13.0 100 0.0 NNE 9 11 5 6 1008.9 1008.3 8.6
26/03:00am 13.4 13.1 13.4 100 0.0 NNE 7 9 4 5 1009.3 1008.7 8.6
26/02:30am 13.3 14.3 13.3 100 0.0 CALM 0 0 0 0 1009.3 1008.7 8.4
26/02:00am 13.8 13.7 13.8 100 0.0 NNW 7 11 4 6 1009.4 1008.8 8.4
26/01:30am 14.2 14.8 14.2 100 0.0 N 4 7 2 4 1009.8 1009.2 8.4
26/01:00am 14.6 14.8 14.6 100 0.0 NW 7 11 4 6 1010.2 1009.6 8.4
26/12:30am 14.5 13.9 14.5 100 0.0 N 11 13 6 7 1010.3 1009.7 8.4
26/12:00am 15.5 15.2 15.5 100 0.0 NNW 11 13 6 7 1010.4 1009.8 8.4
 
Date/Time
EST
Temp
°C
App
Temp
°C
Dew
Point
°C
Rel
Hum
%
Delta-T
°C
Wind Press
QNH
hPa
Press
MSL
hPa
Rain since
9am
mm
Dir  Spd
km/h
Gust
km/h
Spd
kts
Gust
kts
25/11:30pm 14.9 14.4 14.9 100 0.0 N 11 15 6 8 1010.5 1009.9 8.4
25/11:00pm 15.2 14.8 15.2 100 0.0 N 11 13 6 7 1010.5 1009.9 8.4
25/10:30pm 15.7 15.1 15.7 100 0.0 NNW 13 17 7 9 1010.7 1010.1 8.4
25/10:00pm 16.0 15.2 16.0 100 0.0 NNW 15 19 8 10 1010.8 1010.2 8.4
25/09:30pm 16.0 15.5 16.0 100 0.0 N 13 19 7 10 1010.8 1010.2 8.4
25/09:00pm 16.0 15.5 16.0 100 0.0 N 13 15 7 8 1010.9 1010.3 8.4
25/08:30pm 16.1 15.7 16.1 100 0.0 N 13 17 7 9 1010.9 1010.3 8.4
25/08:00pm 16.2 15.4 16.2 100 0.0 NNW 15 17 8 9 1010.7 1010.1 8.4
25/07:30pm 16.4 15.3 16.4 100 0.0 NNW 17 20 9 11 1010.7 1010.1 8.4
25/07:00pm 16.4 14.9 16.4 100 0.0 NNW 19 22 10 12 1010.7 1010.1 8.4
25/06:30pm 16.3 15.2 16.3 100 0.0 NNW 17 20 9 11 1010.6 1010.0 8.4
25/06:00pm 16.4 15.7 16.4 100 0.0 NNW 15 24 8 13 1010.3 1009.7 8.4
25/05:30pm 16.3 15.9 16.3 100 0.0 NNW 13 20 7 11 1010.3 1009.7 8.4
25/05:00pm 16.2 14.7 16.2 100 0.0 NNW 19 24 10 13 1010.1 1009.5 8.2
25/04:30pm 16.2 14.7 16.2 100 0.0 N 19 26 10 14 1010.0 1009.4 7.0
25/04:00pm 16.6 15.0 16.4 99 0.1 N 20 28 11 15 1009.7 1009.1 5.6
25/03:30pm 16.4 14.9 16.4 100 0.0 N 19 26 10 14 1010.0 1009.4 5.6
25/03:00pm 16.7 14.7 16.5 99 0.1 N 22 28 12 15 1010.1 1009.5 5.4
25/02:30pm 17.3 15.7 16.5 95 0.5 NNW 20 26 11 14 1010.3 1009.7 5.4
25/02:00pm 17.2 15.1 16.2 94 0.6 NNW 22 32 12 17 1010.7 1010.1 5.4
25/01:30pm 16.6 14.6 16.4 99 0.1 NNW 22 33 12 18 1011.3 1010.7 5.4
25/01:00pm 16.4 14.4 16.4 100 0.0 NNW 22 30 12 16 1011.8 1011.2 5.2
25/12:30pm 16.3 13.8 16.1 99 0.1 NNW 24 33 13 18 1012.4 1011.8 5.2
25/12:00pm 16.4 14.8 16.4 100 0.0 NNW 20 26 11 14 1013.0 1012.5 4.6
25/11:30am 16.1 14.1 15.5 96 0.4 NW 20 30 11 16 1013.5 1012.9 3.2
25/11:00am 16.6 14.5 14.8 89 1.1 NW 19 26 10 14 1013.8 1013.2 2.0
25/10:30am 17.1 15.3 14.4 84 1.6 WNW 17 24 9 13 1013.9 1013.3 1.2
25/10:00am 17.4 15.5 14.1 81 1.9 NW 17 26 9 14 1014.0 1013.4 0.6
25/09:30am 19.5 16.2 12.8 65 3.8 NNW 22 33 12 18 1013.2 1012.7 0.0
25/09:00am 19.9 15.9 13.1 65 3.9 N 26 35 14 19 1012.7 1012.1 1.2
25/08:30am 19.0 16.3 13.6 71 3.1 N 20 28 11 15 1013.1 1012.6 1.2
25/08:00am 17.9 16.1 13.4 75 2.6 N 15 22 8 12 1013.2 1012.7 1.2
25/07:30am 16.6 15.3 13.7 83 1.7 N 13 17 7 9 1013.1 1012.6 1.2
25/07:00am 15.5 14.5 13.5 88 1.1 N 11 15 6 8 1013.2 1012.7 1.2

Other Formats:

Comma delimited format used in spreadsheet applications
http://www.bom.gov.au/fwo/IDN60801/IDN60801.95721.axf

JavaScript Object Notation format (JSON) in row-major order
http://www.bom.gov.au/fwo/IDN60801/IDN60801.95721.json